Time;durP1;ratioP1;P1;durP2;ratioP2;P2;SDS_P1;SDS_P2;PMS_P1;PMS_P2;Temp;Humidity;BMP_temperature;BMP_pressure;BME280_temperature;BME280_humidity;BME280_pressure;Samples;Min_cycle;Max_cycle;Signal;HPM_P1;HPM_P2
2023/01/14 00:00:17;;;;;;;9.20;2.25;;;;;;;6.30;100.00;100433.84;4992268;28;20039;-52
2023/01/14 00:02:42;;;;;;;8.20;1.50;;;;;;;6.26;100.00;100438.59;4991958;28;20030;-54
2023/01/14 00:05:08;;;;;;;12.48;2.95;;;;;;;6.14;100.00;100434.63;4993848;28;20030;-55
2023/01/14 00:07:34;;;;;;;15.60;3.05;;;;;;;6.18;100.00;100435.97;4988954;28;20031;-52
2023/01/14 00:09:59;;;;;;;12.30;2.25;;;;;;;6.15;100.00;100433.66;4986531;28;20041;-53
2023/01/14 00:12:24;;;;;;;11.20;1.23;;;;;;;6.31;100.00;100425.75;4987094;28;20026;-51
2023/01/14 00:14:50;;;;;;;15.43;3.80;;;;;;;6.43;100.00;100414.88;4989629;28;20034;-56
2023/01/14 00:17:15;;;;;;;9.15;1.23;;;;;;;6.27;100.00;100419.19;4992095;28;20026;-50
2023/01/14 00:19:40;;;;;;;12.63;2.33;;;;;;;6.33;100.00;100408.00;4988837;28;20034;-52
2023/01/14 00:22:06;;;;;;;6.65;1.88;;;;;;;6.34;100.00;100399.09;4989721;28;20034;-54
2023/01/14 00:24:31;;;;;;;19.98;1.50;;;;;;;6.45;100.00;100392.66;4989431;28;20202;-51
2023/01/14 00:26:57;;;;;;;8.68;1.73;;;;;;;6.45;100.00;100390.03;4989603;28;20057;-53
2023/01/14 00:29:26;;;;;;;12.48;1.45;;;;;;;6.58;100.00;100383.44;4991044;28;20084;-53
2023/01/14 00:31:54;;;;;;;7.82;2.13;;;;;;;6.63;100.00;100355.59;4988415;28;20026;-52
2023/01/14 00:34:19;;;;;;;15.75;2.28;;;;;;;6.86;100.00;100360.13;4989257;28;20077;-52
2023/01/14 00:36:45;;;;;;;5.78;1.20;;;;;;;6.91;100.00;100345.47;4987279;28;20392;-54
2023/01/14 00:39:12;;;;;;;8.77;1.58;;;;;;;6.96;100.00;100337.84;4987642;28;20056;-52
2023/01/14 00:41:38;;;;;;;6.57;1.15;;;;;;;6.97;100.00;100338.72;4988229;28;20413;-53
2023/01/14 00:44:03;;;;;;;16.33;1.92;;;;;;;6.98;100.00;100317.44;4986171;28;20030;-51
2023/01/14 00:46:32;;;;;;;16.92;3.38;;;;;;;6.95;100.00;100322.22;4986461;28;20034;-53
2023/01/14 00:48:58;;;;;;;9.52;1.92;;;;;;;7.09;100.00;100313.59;4988917;28;20019;-53
2023/01/14 00:51:25;;;;;;;9.02;0.80;;;;;;;7.16;100.00;100309.28;4989470;28;20057;-52
2023/01/14 00:53:51;;;;;;;7.03;1.55;;;;;;;7.20;100.00;100302.66;4988761;28;20030;-55
2023/01/14 00:56:18;;;;;;;13.35;1.83;;;;;;;7.05;100.00;100296.50;4987755;28;20025;-53
2023/01/14 00:58:44;;;;;;;6.93;2.10;;;;;;;7.17;100.00;100292.44;4987567;28;20029;-55
2023/01/14 01:01:09;;;;;;;9.38;1.75;;;;;;;7.10;100.00;100280.13;4991710;28;20430;-52
2023/01/14 01:03:40;;;;;;;11.00;2.53;;;;;;;7.12;100.00;100273.69;4988214;28;20031;-53
2023/01/14 01:06:06;;;;;;;9.20;2.47;;;;;;;7.07;100.00;100269.94;4990202;28;20503;-52
2023/01/14 01:08:32;;;;;;;10.90;1.77;;;;;;;6.97;100.00;100262.25;4988360;28;20030;-51
2023/01/14 01:10:58;;;;;;;12.95;1.50;;;;;;;6.78;100.00;100268.75;4988569;28;20030;-50
2023/01/14 01:13:24;;;;;;;11.68;3.45;;;;;;;6.53;100.00;100262.75;4988721;28;20042;-53
2023/01/14 01:15:50;;;;;;;9.90;1.50;;;;;;;6.36;100.00;100263.81;4988979;28;20037;-54
2023/01/14 01:18:16;;;;;;;9.27;0.98;;;;;;;6.36;100.00;100261.19;4986774;28;20039;-55
2023/01/14 01:20:44;;;;;;;8.70;1.08;;;;;;;6.45;100.00;100260.97;4988631;28;20029;-51
2023/01/14 01:23:13;;;;;;;15.48;2.65;;;;;;;6.50;100.00;100255.19;4988172;28;20468;-56
2023/01/14 01:25:39;;;;;;;11.68;1.48;;;;;;;6.52;100.00;100243.50;4991491;28;20113;-53
2023/01/14 01:28:05;;;;;;;22.27;3.92;;;;;;;6.61;100.00;100244.31;4990727;28;20376;-57
2023/01/14 01:30:30;;;;;;;16.80;2.63;;;;;;;6.76;100.00;100234.69;4992880;28;20038;-55
2023/01/14 01:32:56;;;;;;;7.97;2.67;;;;;;;6.78;100.00;100224.78;4994107;28;20033;-58
2023/01/14 01:35:22;;;;;;;11.85;3.80;;;;;;;6.87;100.00;100219.47;4990303;28;20034;-57
2023/01/14 01:37:48;;;;;;;6.00;1.08;;;;;;;6.98;100.00;100216.44;4992915;28;20062;-57
2023/01/14 01:40:14;;;;;;;16.48;1.33;;;;;;;7.03;100.00;100208.84;4991456;28;20658;-55
2023/01/14 01:42:55;;;;;;;16.35;4.47;;;;;;;6.98;100.00;100198.00;4987346;28;20380;-55
2023/01/14 01:45:44;;;;;;;11.02;1.80;;;;;;;6.91;100.00;100189.13;4989649;28;20521;-54
2023/01/14 01:48:14;;;;;;;15.48;3.85;;;;;;;6.78;100.00;100185.25;4992343;28;20049;-58
2023/01/14 01:50:41;;;;;;;16.50;1.80;;;;;;;6.86;100.00;100186.19;4992224;28;20504;-58
2023/01/14 01:53:07;;;;;;;17.67;4.03;;;;;;;6.88;100.00;100176.31;4993391;28;20040;-57
2023/01/14 01:55:36;;;;;;;14.68;2.53;;;;;;;6.90;100.00;100163.78;4990579;28;20124;-57
2023/01/14 01:58:04;;;;;;;13.88;1.25;;;;;;;6.88;100.00;100163.94;4990037;28;20035;-54
2023/01/14 02:00:29;;;;;;;12.30;2.83;;;;;;;6.89;100.00;100154.22;4990353;28;20431;-54
2023/01/14 02:03:02;;;;;;;9.00;1.60;;;;;;;6.84;100.00;100140.75;4987827;28;20022;-54
2023/01/14 02:05:28;;;;;;;9.80;1.08;;;;;;;6.89;100.00;100138.41;4990728;28;20026;-57
2023/01/14 02:07:56;;;;;;;10.18;1.63;;;;;;;7.01;100.00;100142.28;4998334;28;20030;-55
2023/01/14 02:10:31;;;;;;;9.38;1.73;;;;;;;6.95;100.00;100135.91;4993689;28;20354;-57
2023/01/14 02:13:25;;;;;;;13.88;2.38;;;;;;;6.96;100.00;100124.34;4989586;28;20072;-59
2023/01/14 02:16:14;;;;;;;7.03;1.90;;;;;;;7.01;100.00;100123.81;4990793;28;20052;-59
2023/01/14 02:19:08;;;;;;;11.98;3.03;;;;;;;7.08;100.00;100101.03;4991815;28;20049;-59
2023/01/14 02:21:39;;;;;;;9.73;1.58;;;;;;;7.19;100.00;100086.59;4985159;28;20037;-57
2023/01/14 02:24:20;;;;;;;6.70;1.92;;;;;;;7.28;100.00;100084.72;4989753;28;20037;-60
2023/01/14 02:26:48;;;;;;;10.68;3.03;;;;;;;7.32;100.00;100081.53;4982443;28;20120;-57
2023/01/14 02:29:40;;;;;;;15.45;1.50;;;;;;;7.39;100.00;100071.91;4985999;28;20022;-57
2023/01/14 02:32:05;;;;;;;4.60;1.85;;;;;;;7.29;100.00;100066.09;4988366;28;20487;-53
2023/01/14 02:34:36;;;;;;;12.63;1.42;;;;;;;7.21;100.00;100051.16;4990382;28;20047;-57
2023/01/14 02:37:11;;;;;;;11.57;1.77;;;;;;;7.21;100.00;100042.44;4989177;28;20049;-58
2023/01/14 02:39:43;;;;;;;13.65;2.03;;;;;;;7.29;100.00;100031.78;4992158;28;20052;-57
2023/01/14 02:45:12;;;;;;;7.53;1.95;;;;;;;7.31;100.00;100023.72;4991004;28;20080;-59
2023/01/14 02:47:40;;;;;;;5.45;1.45;;;;;;;7.40;100.00;100026.06;4986844;28;20030;-55
2023/01/14 02:50:07;;;;;;;6.88;1.00;;;;;;;7.48;100.00;100017.25;4986719;28;20317;-57
2023/01/14 02:52:32;;;;;;;6.47;1.25;;;;;;;7.52;100.00;100013.25;4994205;28;20054;-62
2023/01/14 02:55:02;;;;;;;4.30;1.38;;;;;;;7.88;100.00;100001.13;4994030;28;20027;-61
2023/01/14 02:57:53;;;;;;;11.53;2.77;;;;;;;7.95;100.00;99978.25;4990296;28;20514;-57
2023/01/14 03:00:56;;;;;;;9.17;0.50;;;;;;;7.93;100.00;99959.97;4991588;28;20384;-52
2023/01/14 03:03:36;;;;;;;12.30;0.77;;;;;;;7.92;100.00;99950.38;4992014;28;20391;-60
2023/01/14 03:06:22;;;;;;;5.85;0.82;;;;;;;7.99;100.00;99946.00;4994340;28;20030;-56
2023/01/14 03:09:00;;;;;;;6.93;1.30;;;;;;;8.01;100.00;99932.63;4989873;28;20109;-58
2023/01/14 03:11:36;;;;;;;3.85;0.70;;;;;;;8.06;100.00;99919.69;4988006;28;20062;-56
2023/01/14 03:14:08;;;;;;;8.45;3.08;;;;;;;8.01;100.00;99893.84;4992169;28;20018;-54
2023/01/14 03:16:41;;;;;;;7.15;1.02;;;;;;;8.08;100.00;99886.81;4990506;28;20434;-55
2023/01/14 03:19:12;;;;;;;5.47;0.88;;;;;;;8.01;100.00;99878.00;4990570;28;20062;-56
2023/01/14 03:21:42;;;;;;;3.25;1.27;;;;;;;8.05;100.00;99866.06;4989300;28;20031;-61
2023/01/14 03:24:13;;;;;;;8.60;0.75;;;;;;;8.03;100.00;99867.25;4989880;28;20137;-59
2023/01/14 03:26:41;;;;;;;9.65;1.30;;;;;;;8.02;100.00;99855.84;4985525;28;20038;-58
2023/01/14 03:29:15;;;;;;;4.15;1.20;;;;;;;8.08;100.00;99844.56;4989760;28;20077;-57
2023/01/14 03:31:46;;;;;;;16.30;0.82;;;;;;;8.21;100.00;99838.56;4994598;28;20030;-58
2023/01/14 03:34:15;;;;;;;4.88;0.80;;;;;;;8.28;100.00;99831.50;4987931;28;20435;-57
2023/01/14 03:36:44;;;;;;;3.45;0.20;;;;;;;8.35;100.00;99812.25;4991924;28;20417;-52
2023/01/14 03:39:17;;;;;;;0.63;0.20;;;;;;;8.36;100.00;99804.13;4996618;28;20468;-58
2023/01/14 03:44:38;;;;;;;3.13;0.35;;;;;;;8.28;100.00;99773.38;4988765;28;20096;-55
2023/01/14 03:47:04;;;;;;;1.98;0.52;;;;;;;8.36;100.00;99761.03;4989601;28;20369;-58
2023/01/14 03:49:30;;;;;;;2.83;1.00;;;;;;;8.30;100.00;99755.53;4975649;28;20030;-56
2023/01/14 03:52:39;;;;;;;1.40;0.25;;;;;;;8.41;100.00;99751.56;4988484;28;20050;-57
2023/01/14 03:55:07;;;;;;;2.55;1.13;;;;;;;8.32;100.00;99739.50;4986445;28;20535;-59
2023/01/14 03:57:48;;;;;;;1.27;0.25;;;;;;;8.42;100.00;99710.13;4990591;28;20124;-56
2023/01/14 04:00:21;;;;;;;4.15;0.10;;;;;;;8.30;100.00;99715.91;4991638;28;20030;-59
2023/01/14 04:02:46;;;;;;;1.05;0.35;;;;;;;8.18;100.00;99714.81;4992290;28;20023;-65
2023/01/14 04:05:12;;;;;;;2.15;0.00;;;;;;;8.12;100.00;99704.22;4995226;28;20042;-55
2023/01/14 04:07:38;;;;;;;3.08;0.30;;;;;;;8.16;100.00;99710.72;4991033;28;20113;-59
2023/01/14 04:10:04;;;;;;;3.75;1.02;;;;;;;8.23;100.00;99678.06;4991823;28;20088;-58
2023/01/14 04:12:29;;;;;;;2.63;0.35;;;;;;;8.41;100.00;99682.88;4992651;28;20384;-56
2023/01/14 04:17:38;;;;;;;0.20;0.00;;;;;;;8.41;100.00;99645.88;4988997;28;20074;-61
2023/01/14 04:20:05;;;;;;;1.40;0.08;;;;;;;8.44;100.00;99649.97;4992051;28;20046;-59
2023/01/14 04:22:31;;;;;;;1.08;0.00;;;;;;;8.46;100.00;99635.53;4993959;28;20089;-54
2023/01/14 04:24:56;;;;;;;1.05;0.00;;;;;;;8.52;100.00;99623.41;4992523;28;20423;-55
2023/01/14 04:27:21;;;;;;;0.40;0.10;;;;;;;8.61;100.00;99606.31;4991432;28;20069;-64
2023/01/14 04:29:47;;;;;;;1.50;0.00;;;;;;;8.61;100.00;99601.03;4986601;28;20035;-55
2023/01/14 04:32:12;;;;;;;1.15;0.00;;;;;;;8.52;100.00;99586.41;4991546;28;20049;-57
2023/01/14 04:34:38;;;;;;;1.98;0.38;;;;;;;8.56;100.00;99581.53;4995415;28;20022;-58
2023/01/14 04:37:03;;;;;;;1.45;0.10;;;;;;;8.45;100.00;99573.16;4995226;28;20022;-54
2023/01/14 04:39:28;;;;;;;0.00;0.00;;;;;;;8.57;100.00;99580.50;4989411;28;20038;-62
2023/01/14 04:44:37;;;;;;;1.05;1.00;;;;;;;8.62;100.00;99554.28;4987749;28;20120;-57
2023/01/14 04:47:03;;;;;;;0.30;0.00;;;;;;;8.69;100.00;99531.34;4991440;28;20053;-53
2023/01/14 04:49:28;;;;;;;1.65;0.82;;;;;;;8.81;100.00;99521.81;4987237;28;20156;-57
2023/01/14 04:51:53;;;;;;;0.25;0.00;;;;;;;8.85;100.00;99501.84;4992542;28;20356;-57
2023/01/14 04:54:19;;;;;;;2.53;0.80;;;;;;;8.75;100.00;99490.88;4991920;28;20166;-56
2023/01/14 04:56:44;;;;;;;1.70;0.30;;;;;;;8.71;100.00;99485.19;4992126;28;20117;-64
2023/01/14 04:59:10;;;;;;;0.00;0.00;;;;;;;8.82;100.00;99490.88;4988982;28;20034;-54
2023/01/14 05:01:35;;;;;;;2.30;0.13;;;;;;;8.85;100.00;99483.34;4993161;28;20053;-61
2023/01/14 05:04:01;;;;;;;0.20;0.20;;;;;;;8.90;100.00;99472.97;4993528;28;20121;-65
2023/01/14 05:06:27;;;;;;;0.03;0.00;;;;;;;8.94;100.00;99470.75;4992132;28;20392;-55
2023/01/14 05:08:53;;;;;;;0.35;0.00;;;;;;;9.09;100.00;99467.91;4991911;28;20022;-58
2023/01/14 05:11:18;;;;;;;1.85;0.00;;;;;;;8.97;100.00;99451.84;4991686;28;20388;-61
2023/01/14 05:13:44;;;;;;;0.38;0.00;;;;;;;9.00;100.00;99447.97;4990867;28;20046;-61
2023/01/14 05:16:09;;;;;;;2.30;0.00;;;;;;;9.08;100.00;99443.25;4991378;28;20026;-54
2023/01/14 05:18:35;;;;;;;0.32;0.00;;;;;;;9.07;100.00;99423.13;4995953;28;20034;-56
2023/01/14 05:21:00;;;;;;;0.57;0.00;;;;;;;9.02;100.00;99417.66;4993078;28;20033;-53
2023/01/14 05:23:25;;;;;;;2.90;0.10;;;;;;;8.95;100.00;99420.31;4991636;28;20038;-58
2023/01/14 05:25:51;;;;;;;0.75;0.57;;;;;;;9.01;100.00;99402.00;4990930;28;20042;-53
2023/01/14 05:28:18;;;;;;;0.60;0.08;;;;;;;9.05;100.00;99411.16;4995502;28;20065;-54
2023/01/14 05:30:44;;;;;;;0.28;0.10;;;;;;;9.03;100.00;99386.75;4990120;28;20033;-55
2023/01/14 05:33:10;;;;;;;0.00;0.00;;;;;;;8.95;100.00;99379.84;4989965;28;20030;-53
2023/01/14 05:35:35;;;;;;;2.13;0.00;;;;;;;8.99;100.00;99374.97;4993014;28;20040;-56
2023/01/14 05:38:02;;;;;;;1.10;0.28;;;;;;;9.09;100.00;99381.44;4991791;28;20035;-57
2023/01/14 05:40:27;;;;;;;3.03;0.10;;;;;;;9.04;100.00;99368.03;4989907;28;20042;-56
2023/01/14 05:45:38;;;;;;;3.65;1.13;;;;;;;9.09;100.00;99346.25;4997370;28;20037;-56
2023/01/14 05:48:04;;;;;;;4.68;0.85;;;;;;;9.02;100.00;99340.19;4993818;28;20046;-62
2023/01/14 05:50:29;;;;;;;3.03;0.20;;;;;;;9.05;100.00;99326.53;4989619;28;20035;-51
2023/01/14 05:52:55;;;;;;;0.20;0.20;;;;;;;9.06;100.00;99328.97;4993512;28;20416;-56
2023/01/14 05:55:20;;;;;;;4.38;0.00;;;;;;;9.07;100.00;99304.16;4993695;28;20488;-61
2023/01/14 05:57:45;;;;;;;1.17;0.68;;;;;;;8.97;100.00;99302.97;4993875;28;20110;-56
2023/01/14 06:06:20;;;;;;;2.60;0.00;;;;;;;9.14;100.00;99290.91;4991077;28;20038;-57
2023/01/14 06:08:44;;;;;;;0.68;0.00;;;;;;;9.06;100.00;99275.25;4968622;28;20066;-54
2023/01/14 06:11:09;;;;;;;0.00;0.00;;;;;;;9.02;100.00;99261.66;4963627;28;20547;-51
2023/01/14 06:13:35;;;;;;;2.78;0.93;;;;;;;9.22;100.00;99266.88;4977724;28;21026;-58
2023/01/14 06:16:02;;;;;;;1.00;0.00;;;;;;;9.48;100.00;99246.56;4989597;28;20242;-55
2023/01/14 06:18:37;;;;;;;0.52;0.35;;;;;;;9.51;100.00;99256.72;4991399;28;20161;-61
2023/01/14 06:21:03;;;;;;;1.08;0.10;;;;;;;9.75;100.00;99237.41;4988999;28;20595;-57
2023/01/14 06:23:28;;;;;;;0.38;0.38;;;;;;;9.77;100.00;99221.31;4999005;28;20125;-56
2023/01/14 06:25:53;;;;;;;1.35;0.20;;;;;;;9.70;100.00;99197.53;4988758;28;20031;-56
2023/01/14 06:28:19;;;;;;;3.08;0.15;;;;;;;9.57;100.00;99181.75;4990592;28;20031;-52
2023/01/14 06:30:45;;;;;;;1.23;1.13;;;;;;;9.49;100.00;99182.03;4992124;28;20437;-57
2023/01/14 06:33:10;;;;;;;0.88;0.00;;;;;;;9.48;100.00;99183.06;4991104;28;20511;-54
2023/01/14 06:35:44;;;;;;;0.03;0.03;;;;;;;9.45;100.00;99170.25;4991803;28;20471;-52
2023/01/14 06:38:11;;;;;;;2.13;0.22;;;;;;;9.52;100.00;99181.59;4991033;28;20702;-54
2023/01/14 06:40:38;;;;;;;4.38;0.00;;;;;;;9.49;100.00;99161.66;4992975;28;20033;-54
2023/01/14 06:43:04;;;;;;;0.25;0.00;;;;;;;9.33;100.00;99144.50;4990499;28;20100;-55
2023/01/14 06:45:29;;;;;;;0.50;0.00;;;;;;;9.38;100.00;99144.66;4985021;28;20042;-60
2023/01/14 06:47:55;;;;;;;0.35;0.00;;;;;;;9.52;100.00;99144.56;4990888;28;20670;-62
2023/01/14 06:50:20;;;;;;;0.93;0.13;;;;;;;9.35;100.00;99131.88;4991801;28;20062;-57
2023/01/14 06:52:48;;;;;;;4.30;0.80;;;;;;;9.41;100.00;99124.09;4988412;28;20050;-61
2023/01/14 06:55:14;;;;;;;0.80;0.08;;;;;;;9.37;100.00;99132.47;4989271;28;20077;-58
2023/01/14 06:57:41;;;;;;;3.78;0.35;;;;;;;9.48;100.00;99130.16;4989150;28;20052;-55
2023/01/14 07:00:07;;;;;;;0.52;0.10;;;;;;;9.61;100.00;99107.03;4990717;28;20113;-60
2023/01/14 07:02:32;;;;;;;1.58;0.30;;;;;;;9.71;100.00;99111.00;4990186;28;20026;-61
2023/01/14 07:04:57;;;;;;;1.67;0.75;;;;;;;9.64;100.00;99095.19;4993108;28;20045;-55
2023/01/14 07:07:23;;;;;;;3.13;0.00;;;;;;;9.63;100.00;99092.75;4989329;28;20037;-53
2023/01/14 07:09:48;;;;;;;1.75;0.10;;;;;;;9.53;100.00;99074.75;4984639;28;20062;-54
2023/01/14 07:12:13;;;;;;;2.08;0.25;;;;;;;9.46;100.00;99066.06;4988856;28;20976;-56
2023/01/14 07:14:39;;;;;;;0.73;0.47;;;;;;;9.58;100.00;99070.41;4993551;28;20058;-52
2023/01/14 07:17:04;;;;;;;2.80;0.15;;;;;;;9.53;100.00;99057.03;4984415;28;20571;-52
2023/01/14 07:19:30;;;;;;;1.48;0.08;;;;;;;9.57;100.00;99065.31;4981079;28;20054;-55
2023/01/14 07:21:55;;;;;;;3.45;0.28;;;;;;;9.64;100.00;99036.16;4988559;28;20030;-61
2023/01/14 07:24:20;;;;;;;3.47;0.38;;;;;;;9.72;100.00;99030.56;4996216;28;20068;-63
2023/01/14 07:26:46;;;;;;;1.60;0.10;;;;;;;9.79;100.00;99023.38;4981461;28;20030;-55
2023/01/14 07:29:11;;;;;;;3.15;0.60;;;;;;;9.71;100.00;99024.47;4984316;28;20039;-64
2023/01/14 07:31:37;;;;;;;0.55;0.00;;;;;;;9.81;100.00;99000.94;4986076;28;20027;-57
2023/01/14 07:34:02;;;;;;;3.90;1.10;;;;;;;9.93;100.00;99005.47;4985416;28;20435;-54
2023/01/14 07:36:27;;;;;;;2.42;0.30;;;;;;;9.89;100.00;98986.59;4992944;28;20036;-58
2023/01/14 07:38:52;;;;;;;2.45;0.32;;;;;;;9.93;100.00;98986.94;4986927;28;20484;-58
2023/01/14 07:41:20;;;;;;;1.63;0.52;;;;;;;9.94;100.00;98976.16;4987621;28;20488;-59
2023/01/14 07:43:45;;;;;;;3.28;0.10;;;;;;;10.07;100.00;98975.16;4985686;28;20038;-57
2023/01/14 07:46:11;;;;;;;0.20;0.20;;;;;;;9.94;100.00;98976.16;4986724;28;20104;-55
2023/01/14 07:48:36;;;;;;;1.05;0.00;;;;;;;9.91;100.00;98970.47;4988666;28;20502;-58
2023/01/14 07:51:03;;;;;;;0.90;0.25;;;;;;;9.99;100.00;98968.34;4985640;28;20123;-59
2023/01/14 07:53:28;;;;;;;1.50;0.00;;;;;;;10.03;100.00;98964.19;4982078;28;20380;-54
2023/01/14 07:55:54;;;;;;;4.97;0.20;;;;;;;10.11;100.00;98949.84;4985197;28;20031;-53
2023/01/14 07:58:21;;;;;;;1.42;0.28;;;;;;;9.90;100.00;98945.84;4986987;28;20026;-62
2023/01/14 08:00:47;;;;;;;2.90;0.25;;;;;;;9.87;100.00;98950.78;4985968;28;20109;-57
2023/01/14 08:03:12;;;;;;;2.88;0.20;;;;;;;9.76;100.00;98942.56;4989556;28;20030;-59
2023/01/14 08:05:38;;;;;;;3.50;0.00;;;;;;;9.91;100.00;98946.66;4991465;28;20034;-57
2023/01/14 08:08:03;;;;;;;2.83;0.47;;;;;;;10.05;100.00;98943.59;4989609;28;20054;-57
2023/01/14 08:10:29;;;;;;;1.27;0.03;;;;;;;10.00;100.00;98942.66;4987749;28;20385;-61
2023/01/14 08:12:54;;;;;;;3.00;0.00;;;;;;;10.07;100.00;98946.03;4986669;28;20026;-63
2023/01/14 08:15:19;;;;;;;1.63;0.00;;;;;;;10.19;100.00;98938.13;4995014;28;20379;-56
2023/01/14 08:17:45;;;;;;;0.82;0.00;;;;;;;10.28;100.00;98938.66;4993090;28;20464;-57
2023/01/14 08:20:11;;;;;;;2.35;0.00;;;;;;;10.36;100.00;98925.06;4996189;28;20038;-59
2023/01/14 08:22:37;;;;;;;2.60;0.20;;;;;;;10.26;100.00;98925.59;4993026;28;20108;-57
2023/01/14 08:25:03;;;;;;;0.98;0.20;;;;;;;10.43;100.00;98920.47;4994830;28;20829;-56
2023/01/14 08:27:29;;;;;;;0.93;0.10;;;;;;;10.57;100.00;98913.91;4991022;28;20062;-56
2023/01/14 08:29:55;;;;;;;0.60;0.00;;;;;;;10.52;100.00;98913.81;4994513;28;20062;-56
2023/01/14 08:32:20;;;;;;;1.05;0.00;;;;;;;10.53;100.00;98910.09;4992322;28;20034;-55
2023/01/14 08:34:46;;;;;;;1.38;0.70;;;;;;;10.59;100.00;98898.59;4991119;28;20072;-61
2023/01/14 08:37:11;;;;;;;0.45;0.03;;;;;;;10.68;100.00;98883.97;4996732;28;20041;-53
2023/01/14 08:39:36;;;;;;;0.93;0.00;;;;;;;10.74;100.00;98886.72;4992762;28;20042;-57
2023/01/14 08:42:02;;;;;;;0.20;0.03;;;;;;;10.80;100.00;98883.97;4993236;28;20471;-51
2023/01/14 08:44:27;;;;;;;0.13;0.00;;;;;;;10.67;100.00;98890.31;4997553;28;20038;-64
2023/01/14 08:46:53;;;;;;;1.83;0.00;;;;;;;10.61;100.00;98887.75;5000321;28;20467;-65
2023/01/14 08:49:18;;;;;;;1.77;0.00;;;;;;;10.86;100.00;98876.94;4991784;28;20089;-54
2023/01/14 08:51:43;;;;;;;0.00;0.00;;;;;;;10.94;100.00;98865.97;5001639;28;20049;-60
2023/01/14 08:54:09;;;;;;;1.27;0.00;;;;;;;10.96;100.00;98869.19;4998278;28;20467;-57
2023/01/14 08:56:34;;;;;;;0.10;0.00;;;;;;;10.97;100.00;98870.81;4996274;28;20027;-56
2023/01/14 08:59:00;;;;;;;0.38;0.30;;;;;;;11.02;100.00;98859.50;4990565;28;20173;-62
2023/01/14 09:01:26;;;;;;;0.45;0.03;;;;;;;10.96;100.00;98849.84;4999922;28;20022;-58
2023/01/14 09:03:53;;;;;;;0.25;0.10;;;;;;;11.06;100.00;98869.41;5000636;28;20032;-55
2023/01/14 09:06:18;;;;;;;0.10;0.00;;;;;;;11.08;100.00;98854.06;4985938;28;20041;-64
2023/01/14 09:17:17;;;;;;;0.00;0.00;;;;;;;11.26;100.00;98852.31;4996010;28;20057;-51
2023/01/14 09:19:46;;;;;;;0.00;0.00;;;;;;;11.22;100.00;98844.00;4990741;28;20197;-50
2023/01/14 09:22:15;;;;;;;0.35;0.00;;;;;;;11.27;100.00;98828.19;4994633;28;20471;-60
2023/01/14 09:24:40;;;;;;;1.35;0.47;;;;;;;11.31;100.00;98826.69;4994560;28;20041;-50
2023/01/14 09:27:06;;;;;;;0.00;0.00;;;;;;;11.35;100.00;98821.69;4995427;28;20031;-51
2023/01/14 09:29:31;;;;;;;1.15;0.00;;;;;;;11.37;100.00;98835.53;4988655;28;20479;-53
2023/01/14 09:31:56;;;;;;;0.93;0.20;;;;;;;11.31;100.00;98836.50;4990706;28;20034;-58
2023/01/14 09:34:22;;;;;;;1.17;0.00;;;;;;;11.30;100.00;98822.41;4988044;28;20038;-53
2023/01/14 09:36:49;;;;;;;0.60;0.00;;;;;;;11.48;100.00;98816.09;4988316;28;20030;-62
2023/01/14 09:39:15;;;;;;;0.70;0.00;;;;;;;11.58;100.00;98805.69;4987832;28;20366;-63
2023/01/14 09:41:50;;;;;;;0.13;0.10;;;;;;;11.63;100.00;98814.78;4987065;28;20054;-56
2023/01/14 09:44:15;;;;;;;0.43;0.00;;;;;;;11.70;100.00;98804.84;4985877;28;20447;-52
2023/01/14 09:46:41;;;;;;;2.95;0.05;;;;;;;11.68;100.00;98806.91;4991881;28;20038;-53
2023/01/14 09:49:07;;;;;;;0.20;0.00;;;;;;;11.80;100.00;98815.63;4990457;28;20034;-51
2023/01/14 09:51:56;;;;;;;0.00;0.00;;;;;;;11.75;100.00;98810.22;4990270;28;20089;-55
2023/01/14 09:54:40;;;;;;;0.43;0.22;;;;;;;11.69;100.00;98798.69;4987832;28;20042;-51
2023/01/14 09:57:22;;;;;;;1.35;0.00;;;;;;;11.82;100.00;98800.25;4987237;28;20034;-53
2023/01/14 10:00:00;;;;;;;0.93;0.00;;;;;;;11.72;100.00;98810.69;4981610;28;20038;-50
2023/01/14 10:02:35;;;;;;;1.85;0.00;;;;;;;11.70;100.00;98802.19;4987947;28;20054;-51
2023/01/14 10:05:22;;;;;;;0.25;0.00;;;;;;;11.74;100.00;98804.09;4988113;28;20081;-50
2023/01/14 10:07:49;;;;;;;0.30;0.00;;;;;;;11.64;100.00;98797.81;4985968;28;20030;-50
2023/01/14 10:10:41;;;;;;;0.50;0.00;;;;;;;11.75;100.00;98802.28;4985202;28;20022;-54
2023/01/14 10:13:18;;;;;;;;;;;;;;;12.09;100.00;98815.59;4983177;28;20033;-53
2023/01/14 10:16:01;;;;;;;1.77;0.00;;;;;;;12.09;100.00;98816.41;4986512;28;20334;-51
2023/01/14 10:19:00;;;;;;;0.60;0.00;;;;;;;11.99;100.00;98798.44;4988551;28;20949;-57
2023/01/14 10:21:27;;;;;;;0.80;0.30;;;;;;;11.93;100.00;98802.06;4991029;28;20060;-51
2023/01/14 10:23:53;;;;;;;0.55;0.30;;;;;;;12.05;100.00;98806.50;4989681;28;20033;-54
2023/01/14 10:26:20;;;;;;;0.10;0.10;;;;;;;12.08;100.00;98798.88;4990071;28;20038;-59
2023/01/14 10:28:49;;;;;;;1.90;0.00;;;;;;;12.00;100.00;98793.94;4986124;28;20033;-54
2023/01/14 10:31:27;;;;;;;0.05;0.00;;;;;;;12.02;100.00;98814.94;4986461;28;20535;-59
2023/01/14 10:33:52;;;;;;;1.23;0.10;;;;;;;12.17;100.00;98801.91;4989911;28;20030;-60
2023/01/14 10:36:23;;;;;;;0.00;0.00;;;;;;;12.23;100.00;98796.41;4993345;28;20099;-59
2023/01/14 10:38:50;;;;;;;2.17;0.00;;;;;;;12.20;100.00;98801.41;4987833;28;20032;-51
2023/01/14 10:41:16;;;;;;;0.28;0.00;;;;;;;12.28;100.00;98789.59;4989983;28;20384;-52
2023/01/14 10:43:45;;;;;;;1.27;0.30;;;;;;;12.33;100.00;98779.81;4990177;28;20038;-60
2023/01/14 10:46:19;;;;;;;0.10;0.10;;;;;;;12.21;100.00;98787.09;4987746;28;20107;-52
2023/01/14 10:48:50;;;;;;;2.17;0.10;;;;;;;12.11;100.00;98782.44;4984690;28;20527;-54
2023/01/14 10:51:35;;;;;;;;;;;;;;;12.12;100.00;98792.00;4990718;28;20085;-57
2023/01/14 10:54:28;;;;;;;0.98;0.00;;;;;;;12.27;100.00;98795.97;4989055;28;19921;-58
2023/01/14 10:57:12;;;;;;;0.10;0.00;;;;;;;12.19;100.00;98815.75;4986844;28;20058;-59
2023/01/14 10:59:49;;;;;;;0.00;0.00;;;;;;;12.24;100.00;98831.78;4986916;28;20480;-59
2023/01/14 11:02:29;;;;;;;0.20;0.20;;;;;;;12.42;100.00;98836.06;4988980;28;20476;-59
2023/01/14 11:04:55;;;;;;;0.08;0.00;;;;;;;12.39;100.00;98845.31;4986230;28;20133;-61
2023/01/14 11:07:30;;;;;;;0.00;0.00;;;;;;;12.25;100.00;98838.69;4992639;28;20484;-59
2023/01/14 11:09:57;;;;;;;1.00;0.00;;;;;;;12.18;100.00;98838.06;4989468;28;20489;-59
2023/01/14 11:12:31;;;;;;;0.45;0.00;;;;;;;12.21;100.00;98829.63;4990218;28;20065;-56
2023/01/14 11:14:57;;;;;;;2.55;0.30;;;;;;;12.16;100.00;98843.63;4995628;28;20041;-55
2023/01/14 11:17:26;;;;;;;0.13;0.00;;;;;;;11.93;100.00;98822.53;4993954;28;20022;-57
2023/01/14 11:19:51;;;;;;;0.17;0.00;;;;;;;11.82;100.00;98824.13;4988135;28;20368;-56
2023/01/14 11:22:17;;;;;;;0.00;0.00;;;;;;;11.72;100.00;98822.13;4990705;28;20031;-57
2023/01/14 11:24:45;;;;;;;0.00;0.00;;;;;;;11.76;100.00;98822.44;4993223;28;20369;-58
2023/01/14 11:27:19;;;;;;;0.17;0.00;;;;;;;11.70;100.00;98812.78;4981062;28;20044;-58
2023/01/14 11:29:47;;;;;;;0.20;0.00;;;;;;;11.49;100.00;98817.75;4986582;28;20057;-53
2023/01/14 11:32:21;;;;;;;0.20;0.20;;;;;;;11.48;100.00;98810.00;4979701;28;20030;-56
2023/01/14 11:34:52;;;;;;;0.20;0.00;;;;;;;11.75;100.00;98800.41;4988743;28;20555;-55
2023/01/14 11:37:31;;;;;;;0.00;0.00;;;;;;;11.86;100.00;98806.72;4988649;28;20038;-56
2023/01/14 11:39:59;;;;;;;0.00;0.00;;;;;;;11.70;100.00;98807.50;4986700;28;20088;-55
2023/01/14 11:42:41;;;;;;;1.30;0.00;;;;;;;11.48;100.00;98799.38;4984853;28;20487;-58
2023/01/14 11:45:12;;;;;;;0.00;0.00;;;;;;;11.45;100.00;98802.53;4983587;28;20403;-56
2023/01/14 11:47:48;;;;;;;0.00;0.00;;;;;;;11.50;100.00;98814.03;4980633;28;20547;-57
2023/01/14 11:50:23;;;;;;;0.63;0.00;;;;;;;11.53;100.00;98807.44;4987736;28;20049;-57
2023/01/14 11:53:15;;;;;;;0.47;0.00;;;;;;;11.58;100.00;98811.00;4990409;28;20542;-57
2023/01/14 11:55:41;;;;;;;3.38;0.63;;;;;;;11.64;100.00;98798.63;4986279;28;20377;-53
2023/01/14 11:58:20;;;;;;;5.32;0.00;;;;;;;11.56;100.00;98794.50;4983738;28;20412;-56
2023/01/14 12:01:23;;;;;;;4.85;0.00;;;;;;;11.60;100.00;98796.69;4981326;28;20395;-54
2023/01/14 12:04:18;;;;;;;0.47;0.00;;;;;;;11.67;100.00;98792.00;4982577;28;20392;-57